createdAt,value
2016-04-16T00:00:30.868Z,0
2016-04-16T00:01:30.933Z,0
2016-04-16T00:02:30.967Z,0
2016-04-16T00:03:31.033Z,0
2016-04-16T00:04:30.927Z,0
2016-04-16T00:05:31.132Z,0
2016-04-16T00:06:31.166Z,0
2016-04-16T00:07:31.230Z,0
2016-04-16T00:08:31.280Z,0
2016-04-16T00:09:31.330Z,0
2016-04-16T00:10:31.395Z,0
2016-04-16T00:11:31.429Z,0
2016-04-16T00:12:31.478Z,0
2016-04-16T00:13:31.543Z,0
2016-04-16T00:14:31.593Z,0
2016-04-16T00:15:31.643Z,0
2016-04-16T00:16:31.677Z,0
2016-04-16T00:17:31.727Z,0
2016-04-16T00:18:31.792Z,0
2016-04-16T00:19:31.842Z,0
2016-04-16T00:20:31.906Z,0
2016-04-16T00:21:31.925Z,0
2016-04-16T00:22:31.990Z,0
2016-04-16T00:23:32.056Z,0
2016-04-16T00:24:32.090Z,0
2016-04-16T00:25:32.154Z,0
2016-04-16T00:26:32.204Z,0
2016-04-16T00:27:32.238Z,0
2016-04-16T00:28:32.287Z,0
2016-04-16T00:29:32.353Z,0
2016-04-16T00:30:32.402Z,0
2016-04-16T00:31:32.452Z,0
2016-04-16T00:32:32.501Z,0
2016-04-16T00:33:32.550Z,0
2016-04-16T00:34:32.600Z,0
2016-04-16T00:35:32.650Z,0
2016-04-16T00:36:32.716Z,0
2016-04-16T00:37:32.749Z,0
2016-04-16T00:38:32.814Z,0
2016-04-16T00:39:32.863Z,0
2016-04-16T00:40:32.898Z,0
2016-04-16T00:41:32.963Z,0
2016-04-16T00:42:32.840Z,0
2016-04-16T00:43:33.062Z,0
2016-04-16T00:44:32.970Z,0
2016-04-16T00:45:33.161Z,0
2016-04-16T00:46:33.210Z,4
2016-04-16T00:47:33.260Z,0
2016-04-16T00:48:33.310Z,0
2016-04-16T00:49:33.376Z,0
2016-04-16T00:50:33.425Z,0
2016-04-16T00:51:33.318Z,0
2016-04-16T00:52:33.523Z,0
2016-04-16T00:53:33.574Z,0
2016-04-16T00:54:33.623Z,0
2016-04-16T00:55:33.673Z,0
2016-04-16T00:56:33.723Z,0
2016-04-16T00:57:33.772Z,0
2016-04-16T00:58:33.853Z,0
2016-04-16T00:59:33.870Z,0
2016-04-16T01:00:33.920Z,0
2016-04-16T01:01:33.985Z,0
2016-04-16T01:02:34.019Z,0
2016-04-16T01:03:34.085Z,0
2016-04-16T01:04:34.134Z,0
2016-04-16T01:05:34.184Z,0
2016-04-16T01:06:34.233Z,0
2016-04-16T01:07:34.299Z,0
2016-04-16T01:08:34.348Z,0
2016-04-16T01:09:34.382Z,0
2016-04-16T01:10:34.447Z,0
2016-04-16T01:11:34.481Z,0
2016-04-16T01:12:34.546Z,0
2016-04-16T01:13:34.626Z,0
2016-04-16T01:14:34.646Z,0
2016-04-16T01:15:34.695Z,0
2016-04-16T01:16:34.745Z,0
2016-04-16T01:17:34.793Z,0
2016-04-16T01:18:34.875Z,0
2016-04-16T01:19:34.893Z,0
2016-04-16T01:20:34.973Z,0
2016-04-16T01:21:34.993Z,0
2016-04-16T01:22:35.057Z,0
2016-04-16T01:23:35.107Z,4
2016-04-16T01:24:35.141Z,4
2016-04-16T01:25:35.190Z,4
2016-04-16T01:26:35.255Z,4
2016-04-16T01:27:35.305Z,4
2016-04-16T01:28:35.355Z,0
2016-04-16T01:29:35.405Z,0
2016-04-16T01:30:35.453Z,0
2016-04-16T01:31:35.519Z,0
2016-04-16T01:32:35.428Z,0
2016-04-16T01:33:35.602Z,0
2016-04-16T01:34:35.714Z,0
2016-04-16T01:35:35.764Z,0
2016-04-16T01:36:35.860Z,0
2016-04-16T01:37:35.644Z,0
2016-04-16T01:38:39.163Z,0
2016-04-16T01:39:35.977Z,0
2016-04-16T01:40:36.027Z,0
2016-04-16T01:41:36.108Z,0
2016-04-16T01:42:36.095Z,0
2016-04-16T01:43:36.129Z,0
2016-04-16T01:44:36.210Z,0
2016-04-16T01:45:36.229Z,0
2016-04-16T01:46:36.279Z,0
2016-04-16T01:47:36.313Z,0
2016-04-16T01:48:36.362Z,0
2016-04-16T01:49:36.427Z,0
2016-04-16T01:50:36.476Z,0
2016-04-16T01:51:36.510Z,0
2016-04-16T01:52:36.575Z,0
2016-04-16T01:53:36.625Z,0
2016-04-16T01:54:36.675Z,0
2016-04-16T01:55:36.725Z,0
2016-04-16T01:56:36.790Z,0
2016-04-16T01:57:36.823Z,0
2016-04-16T01:58:36.889Z,0
2016-04-16T01:59:36.938Z,0
2016-04-16T02:00:36.988Z,0
2016-04-16T02:01:37.036Z,0
2016-04-16T02:02:37.086Z,0
2016-04-16T02:03:37.140Z,0
2016-04-16T02:04:37.189Z,0
2016-04-16T02:05:37.239Z,0
2016-04-16T02:06:37.304Z,0
2016-04-16T02:07:37.339Z,0
2016-04-16T02:08:37.388Z,0
2016-04-16T02:09:37.437Z,0
2016-04-16T02:10:37.487Z,0
2016-04-16T02:11:37.553Z,0
2016-04-16T02:12:37.603Z,0
2016-04-16T02:13:37.652Z,0
2016-04-16T02:14:37.686Z,0
2016-04-16T02:15:37.594Z,0
2016-04-16T02:16:37.800Z,0
2016-04-16T02:17:37.833Z,0
2016-04-16T02:18:37.899Z,0
2016-04-16T02:19:37.949Z,0
2016-04-16T02:20:37.999Z,0
2016-04-16T02:21:38.048Z,0
2016-04-16T02:22:38.100Z,0
2016-04-16T02:23:38.149Z,0
2016-04-16T02:24:38.215Z,0
2016-04-16T02:25:38.248Z,0
2016-04-16T02:26:38.313Z,0
2016-04-16T02:27:38.363Z,0
2016-04-16T02:28:38.412Z,0
2016-04-16T02:29:38.463Z,0
2016-04-16T02:30:38.528Z,0
2016-04-16T02:31:38.577Z,0
2016-04-16T02:32:38.611Z,0
2016-04-16T02:33:38.754Z,0
2016-04-16T02:34:38.725Z,0
2016-04-16T02:35:38.837Z,0
2016-04-16T02:36:38.825Z,0
2016-04-16T02:37:38.875Z,0
2016-04-16T02:38:38.925Z,0
2016-04-16T02:39:38.973Z,0
2016-04-16T02:40:39.023Z,0
2016-04-16T02:41:39.041Z,0
2016-04-16T02:42:39.122Z,0
2016-04-16T02:43:39.155Z,0
2016-04-16T02:44:39.231Z,0
2016-04-16T02:45:39.355Z,0
2016-04-16T02:46:39.447Z,0
2016-04-16T02:47:39.524Z,0
2016-04-16T02:48:39.631Z,0
2016-04-16T02:49:39.728Z,0
2016-04-16T02:50:39.840Z,0
2016-04-16T02:51:39.827Z,0
2016-04-16T02:52:39.892Z,0
2016-04-16T02:53:39.989Z,0
2016-04-16T02:54:40.028Z,0
2016-04-16T02:55:40.052Z,0
2016-04-16T02:56:40.139Z,0
2016-04-16T02:57:40.209Z,0
2016-04-16T02:58:40.217Z,0
2016-04-16T02:59:40.285Z,0
2016-04-16T03:00:40.384Z,0
2016-04-16T03:01:40.372Z,0
2016-04-16T03:02:39.691Z,0
2016-04-16T03:03:40.523Z,0
2016-04-16T03:04:40.541Z,0
2016-04-16T03:05:40.748Z,0
2016-04-16T03:06:40.642Z,0
2016-04-16T03:07:40.709Z,0
2016-04-16T03:08:40.790Z,0
2016-04-16T03:09:40.793Z,0
2016-04-16T03:10:40.858Z,0
2016-04-16T03:11:40.925Z,0
2016-04-16T03:12:40.975Z,0
2016-04-16T03:13:41.009Z,0
2016-04-16T03:14:41.089Z,0
2016-04-16T03:15:41.139Z,0
2016-04-16T03:16:41.157Z,0
2016-04-16T03:17:41.253Z,0
2016-04-16T03:18:41.272Z,0
2016-04-16T03:19:41.352Z,0
2016-04-16T03:20:41.450Z,0
2016-04-16T03:21:41.420Z,0
2016-04-16T03:22:41.502Z,0
2016-04-16T03:23:41.550Z,0
2016-04-16T03:24:41.569Z,0
2016-04-16T03:25:41.665Z,0
2016-04-16T03:26:41.699Z,0
2016-04-16T03:27:41.733Z,0
2016-04-16T03:28:41.799Z,0
2016-04-16T03:29:41.864Z,0
2016-04-16T03:30:41.882Z,0
2016-04-16T03:31:41.947Z,0
2016-04-16T03:32:41.982Z,0
2016-04-16T03:33:42.062Z,0
2016-04-16T03:34:42.112Z,0
2016-04-16T03:35:41.973Z,0
2016-04-16T03:36:42.210Z,0
2016-04-16T03:37:42.276Z,0
2016-04-16T03:38:42.295Z,0
2016-04-16T03:39:42.343Z,0
2016-04-16T03:40:42.440Z,0
2016-04-16T03:41:42.428Z,0
2016-04-16T03:42:42.492Z,0
2016-04-16T03:43:42.559Z,0
2016-04-16T03:44:42.623Z,0
2016-04-16T03:45:42.673Z,0
2016-04-16T03:46:42.706Z,0
2016-04-16T03:47:42.772Z,0
2016-04-16T03:48:42.837Z,0
2016-04-16T03:49:42.855Z,0
2016-04-16T03:50:42.967Z,0
2016-04-16T03:51:42.985Z,0
2016-04-16T03:52:43.004Z,0
2016-04-16T03:53:43.053Z,0
2016-04-16T03:54:43.134Z,0
2016-04-16T03:55:43.183Z,0
2016-04-16T03:56:43.233Z,0
2016-04-16T03:57:43.252Z,0
2016-04-16T03:58:43.316Z,0
2016-04-16T03:59:43.382Z,0
2016-04-16T04:00:43.415Z,0
2016-04-16T04:01:43.449Z,0
2016-04-16T04:02:43.546Z,0
2016-04-16T04:03:43.580Z,0
2016-04-16T04:04:43.458Z,0
2016-04-16T04:05:43.898Z,0
2016-04-16T04:06:43.745Z,0
2016-04-16T04:07:43.762Z,0
2016-04-16T04:08:43.843Z,0
2016-04-16T04:09:43.878Z,0
2016-04-16T04:10:43.959Z,0
2016-04-16T04:11:43.993Z,0
2016-04-16T04:12:44.026Z,0
2016-04-16T04:13:44.123Z,0
2016-04-16T04:14:44.141Z,0
2016-04-16T04:15:44.175Z,0
2016-04-16T04:16:44.272Z,0
2016-04-16T04:17:44.320Z,0
2016-04-16T04:18:44.339Z,0
2016-04-16T04:19:44.405Z,0
2016-04-16T04:20:44.439Z,0
2016-04-16T04:21:44.489Z,0
2016-04-16T04:22:44.538Z,0
2016-04-16T04:23:44.619Z,0
2016-04-16T04:24:44.636Z,0
2016-04-16T04:25:44.702Z,0
2016-04-16T04:26:44.782Z,0
2016-04-16T04:27:44.816Z,0
2016-04-16T04:28:44.850Z,0
2016-04-16T04:29:44.932Z,0
2016-04-16T04:30:44.981Z,0
2016-04-16T04:31:44.999Z,0
2016-04-16T04:32:45.065Z,0
2016-04-16T04:33:45.129Z,0
2016-04-16T04:34:44.992Z,0
2016-04-16T04:35:45.229Z,0
2016-04-16T04:36:45.247Z,0
2016-04-16T04:37:45.344Z,0
2016-04-16T04:38:45.377Z,0
2016-04-16T04:39:45.396Z,0
2016-04-16T04:40:45.492Z,0
2016-04-16T04:41:45.557Z,0
2016-04-16T04:42:45.559Z,0
2016-04-16T04:43:45.626Z,0
2016-04-16T04:44:45.706Z,0
2016-04-16T04:45:45.725Z,0
2016-04-16T04:46:45.774Z,0
2016-04-16T04:47:45.886Z,0
2016-04-16T04:48:45.889Z,0
2016-04-16T04:49:45.953Z,0
2016-04-16T04:50:45.972Z,0
2016-04-16T04:51:46.037Z,0
2016-04-16T04:52:46.103Z,0
2016-04-16T04:53:46.122Z,0
2016-04-16T04:54:46.170Z,0
2016-04-16T04:55:46.252Z,0
2016-04-16T04:56:46.300Z,0
2016-04-16T04:57:46.382Z,0
2016-04-16T04:58:46.415Z,0
2016-04-16T04:59:46.434Z,0
2016-04-16T05:00:46.515Z,0
2016-04-16T05:01:46.533Z,0
2016-04-16T05:02:46.583Z,0
2016-04-16T05:03:46.679Z,0
2016-04-16T05:04:46.697Z,0
2016-04-16T05:05:46.746Z,0
2016-04-16T05:06:46.812Z,0
2016-04-16T05:07:46.862Z,0
2016-04-16T05:08:46.899Z,0
2016-04-16T05:09:46.979Z,0
2016-04-16T05:10:47.029Z,0
2016-04-16T05:11:47.031Z,0
2016-04-16T05:12:47.129Z,0
2016-04-16T05:13:47.146Z,0
2016-04-16T05:14:47.227Z,0
2016-04-16T05:15:47.262Z,0
2016-04-16T05:16:47.311Z,0
2016-04-16T05:17:47.391Z,0
2016-04-16T05:18:47.425Z,0
2016-04-16T05:19:47.444Z,0
2016-04-16T05:20:47.525Z,0
2016-04-16T05:21:47.575Z,0
2016-04-16T05:22:47.609Z,0
2016-04-16T05:23:47.658Z,0
2016-04-16T05:24:47.754Z,0
2016-04-16T05:25:47.757Z,0
2016-04-16T05:26:47.838Z,0
2016-04-16T05:27:47.871Z,0
2016-04-16T05:28:47.937Z,0
2016-04-16T05:29:47.986Z,0
2016-04-16T05:30:48.020Z,0
2016-04-16T05:31:48.086Z,0
2016-04-16T05:32:48.151Z,0
2016-04-16T05:33:48.169Z,0
2016-04-16T05:34:48.218Z,0
2016-04-16T05:35:48.315Z,0
2016-04-16T05:36:48.333Z,0
2016-04-16T05:37:48.368Z,0
2016-04-16T05:38:48.448Z,0
2016-04-16T05:39:48.482Z,0
2016-04-16T05:40:48.579Z,0
2016-04-16T05:41:48.582Z,0
2016-04-16T05:42:48.631Z,0
2016-04-16T05:43:48.712Z,0
2016-04-16T05:44:48.745Z,0
2016-04-16T05:45:48.779Z,0
2016-04-16T05:46:48.876Z,0
2016-04-16T05:47:48.909Z,0
2016-04-16T05:48:48.929Z,0
2016-04-16T05:49:49.056Z,0
2016-04-16T05:50:49.059Z,0
2016-04-16T05:51:49.108Z,0
2016-04-16T05:52:49.142Z,0
2016-04-16T05:53:49.192Z,0
2016-04-16T05:54:49.272Z,0
2016-04-16T05:55:49.306Z,0
2016-04-16T05:56:49.340Z,0
2016-04-16T05:57:49.421Z,0
2016-04-16T05:58:49.486Z,0
2016-04-16T05:59:49.488Z,0
2016-04-16T06:00:49.586Z,0
2016-04-16T06:01:49.650Z,0
2016-04-16T06:02:49.653Z,0
2016-04-16T06:03:49.718Z,0
2016-04-16T06:04:49.783Z,0
2016-04-16T06:05:49.802Z,0
2016-04-16T06:06:49.866Z,0
2016-04-16T06:07:49.948Z,0
2016-04-16T06:08:49.966Z,0
2016-04-16T06:09:49.999Z,0
2016-04-16T06:10:50.081Z,0
2016-04-16T06:11:50.130Z,0
2016-04-16T06:12:50.165Z,0
2016-04-16T06:13:50.246Z,0
2016-04-16T06:14:50.295Z,0
2016-04-16T06:15:50.313Z,0
2016-04-16T06:16:50.410Z,0
2016-04-16T06:17:50.429Z,0
2016-04-16T06:18:50.524Z,0
2016-04-16T06:19:50.543Z,0
2016-04-16T06:20:50.576Z,0
2016-04-16T06:21:50.501Z,0
2016-04-16T06:22:50.706Z,0
2016-04-16T06:23:50.726Z,0
2016-04-16T06:24:50.806Z,0
2016-04-16T06:25:50.856Z,0
2016-04-16T06:26:50.890Z,0
2016-04-16T06:27:50.939Z,0
2016-04-16T06:28:51.004Z,0
2016-04-16T06:29:51.023Z,0
2016-04-16T06:30:51.119Z,0
2016-04-16T06:31:51.138Z,0
2016-04-16T06:32:51.233Z,0
2016-04-16T06:33:51.268Z,0
2016-04-16T06:34:51.286Z,0
2016-04-16T06:35:51.351Z,0
2016-04-16T06:36:51.433Z,0
2016-04-16T06:37:51.450Z,0
2016-04-16T06:38:51.500Z,0
2016-04-16T06:39:51.580Z,0
2016-04-16T06:40:51.599Z,0
2016-04-16T06:41:51.649Z,0
2016-04-16T06:42:51.730Z,0
2016-04-16T06:43:51.780Z,0
2016-04-16T06:44:51.829Z,0
2016-04-16T06:45:51.847Z,0
2016-04-16T06:46:51.912Z,0
2016-04-16T06:47:51.837Z,0
2016-04-16T06:48:51.762Z,0
2016-04-16T06:49:52.061Z,0
2016-04-16T06:50:52.142Z,0
2016-04-16T06:51:52.176Z,0
2016-04-16T06:52:52.210Z,0
2016-04-16T06:53:52.290Z,0
2016-04-16T06:54:52.356Z,0
2016-04-16T06:55:52.390Z,0
2016-04-16T06:56:52.423Z,0
2016-04-16T06:57:52.317Z,0
2016-04-16T06:58:52.554Z,0
2016-04-16T06:59:52.603Z,0
2016-04-16T07:00:52.622Z,0
2016-04-16T07:01:52.703Z,0
2016-04-16T07:02:52.752Z,0
2016-04-16T07:03:52.770Z,4
2016-04-16T07:04:52.852Z,4
2016-04-16T07:05:52.916Z,0
2016-04-16T07:06:52.919Z,0
2016-04-16T07:07:52.985Z,0
2016-04-16T07:08:53.033Z,0
2016-04-16T07:09:53.115Z,0
2016-04-16T07:10:53.163Z,0
2016-04-16T07:11:53.183Z,0
2016-04-16T07:12:53.264Z,0
2016-04-16T07:13:53.312Z,0
2016-04-16T07:14:53.347Z,0
2016-04-16T07:15:53.412Z,0
2016-04-16T07:16:53.462Z,0
2016-04-16T07:17:53.496Z,0
2016-04-16T07:18:53.545Z,0
2016-04-16T07:19:53.642Z,0
2016-04-16T07:20:53.659Z,0
2016-04-16T07:21:53.912Z,0
2016-04-16T07:22:53.743Z,0
2016-04-16T07:23:53.823Z,0
2016-04-16T07:24:53.889Z,4
2016-04-16T07:25:53.908Z,4
2016-04-16T07:26:53.957Z,0
2016-04-16T07:27:54.038Z,0
2016-04-16T07:28:54.056Z,0
2016-04-16T07:29:54.106Z,0
2016-04-16T07:30:54.203Z,0
2016-04-16T07:31:53.940Z,4
2016-04-16T07:32:54.255Z,0
2016-04-16T07:33:54.336Z,0
2016-04-16T07:34:54.353Z,0
2016-04-16T07:35:54.450Z,0
2016-04-16T07:36:54.563Z,0
2016-04-16T07:37:54.518Z,0
2016-04-16T07:38:54.599Z,0
2016-04-16T07:39:54.632Z,0
2016-04-16T07:40:54.666Z,0
2016-04-16T07:41:54.764Z,0
2016-04-16T07:42:54.796Z,0
2016-04-16T07:43:54.815Z,0
2016-04-16T07:44:54.896Z,0
2016-04-16T07:45:54.962Z,4
2016-04-16T07:46:54.980Z,0
2016-04-16T07:47:55.046Z,4
2016-04-16T07:48:55.110Z,0
2016-04-16T07:49:55.129Z,4
2016-04-16T07:50:55.178Z,0
2016-04-16T07:51:55.274Z,4
2016-04-16T07:52:55.309Z,0
2016-04-16T07:53:55.327Z,0
2016-04-16T07:54:55.423Z,4
2016-04-16T07:55:55.457Z,0
2016-04-16T07:56:55.492Z,0
2016-04-16T07:57:55.573Z,4
2016-04-16T07:58:55.621Z,4
2016-04-16T07:59:55.655Z,4
2016-04-16T08:00:55.706Z,4
2016-04-16T08:01:55.755Z,4
2016-04-16T08:02:55.835Z,4
2016-04-16T08:03:55.853Z,0
2016-04-16T08:04:55.888Z,4
2016-04-16T08:05:55.984Z,4
2016-04-16T08:06:56.033Z,0
2016-04-16T08:07:56.052Z,4
2016-04-16T08:08:56.133Z,4
2016-04-16T08:09:56.183Z,4
2016-04-16T08:10:56.216Z,4
2016-04-16T08:11:56.282Z,0
2016-04-16T08:12:56.315Z,0
2016-04-16T08:13:56.396Z,0
2016-04-16T08:14:56.446Z,0
2016-04-16T08:15:56.463Z,0
2016-04-16T08:16:56.546Z,0
2016-04-16T08:17:56.599Z,4
2016-04-16T08:18:56.618Z,0
2016-04-16T08:19:56.699Z,0
2016-04-16T08:20:56.764Z,0
2016-04-16T08:21:56.766Z,0
2016-04-16T08:22:56.832Z,0
2016-04-16T08:23:56.897Z,0
2016-04-16T08:24:56.931Z,0
2016-04-16T08:25:57.011Z,0
2016-04-16T08:26:57.030Z,0
2016-04-16T08:27:57.095Z,0
2016-04-16T08:28:57.175Z,0
2016-04-16T08:29:57.178Z,0
2016-04-16T08:30:57.228Z,0
2016-04-16T08:31:56.575Z,0
2016-04-16T08:32:57.358Z,4
2016-04-16T08:33:57.392Z,16
2016-04-16T08:34:57.473Z,12
2016-04-16T08:35:57.507Z,12
2016-04-16T08:36:57.525Z,12
2016-04-16T08:37:57.622Z,16
2016-04-16T08:38:57.640Z,12
2016-04-16T08:39:57.721Z,12
2016-04-16T08:40:57.755Z,28
2016-04-16T08:41:57.804Z,20
2016-04-16T08:42:57.901Z,20
2016-04-16T08:43:57.935Z,20
2016-04-16T08:44:57.954Z,12
2016-04-16T08:45:58.035Z,20
2016-04-16T08:46:58.084Z,16
2016-04-16T08:47:58.102Z,20
2016-04-16T08:48:58.182Z,16
2016-04-16T08:49:58.248Z,16
2016-04-16T08:50:58.266Z,28
2016-04-16T08:51:58.332Z,80
2016-04-16T08:52:58.365Z,76
2016-04-16T08:53:58.462Z,36
2016-04-16T08:54:58.496Z,56
2016-04-16T08:55:58.514Z,40
2016-04-16T08:56:58.595Z,36
2016-04-16T08:57:58.659Z,24
2016-04-16T08:58:58.662Z,60
2016-04-16T08:59:58.743Z,68
2016-04-16T09:01:00.293Z,24
2016-04-16T09:02:00.358Z,28
2016-04-16T09:03:00.689Z,24
2016-04-16T09:04:00.848Z,20
2016-04-16T09:05:01.100Z,60
2016-04-16T09:06:00.603Z,60
2016-04-16T09:07:00.513Z,56
2016-04-16T09:08:00.578Z,24
2016-04-16T09:08:59.236Z,28
2016-04-16T09:09:59.255Z,48
2016-04-16T09:10:59.304Z,52
2016-04-16T09:11:59.416Z,32
2016-04-16T09:12:59.404Z,40
2016-04-16T09:13:59.437Z,28
2016-04-16T09:14:59.549Z,36
2016-04-16T09:15:59.568Z,32
2016-04-16T09:16:59.618Z,64
2016-04-16T09:17:59.636Z,28
2016-04-16T09:18:59.700Z,60
2016-04-16T09:19:59.781Z,28
2016-04-16T09:20:59.800Z,60
2016-04-16T09:21:59.849Z,60
2016-04-16T09:22:59.930Z,64
2016-04-16T09:23:59.965Z,60
2016-04-16T09:25:00.014Z,20
2016-04-16T09:26:00.110Z,20
2016-04-16T09:27:00.144Z,32
2016-04-16T09:28:00.162Z,24
2016-04-16T09:29:00.243Z,20
2016-04-16T09:30:00.293Z,32
2016-04-16T09:31:00.312Z,20
2016-04-16T09:32:00.392Z,20
2016-04-16T09:33:00.458Z,24
2016-04-16T09:34:00.475Z,60
2016-04-16T09:35:00.525Z,28
2016-04-16T09:36:00.621Z,24
2016-04-16T09:37:00.624Z,20
2016-04-16T09:38:00.674Z,32
2016-04-16T09:39:00.770Z,24
2016-04-16T09:40:00.805Z,20
2016-04-16T09:41:00.822Z,24
2016-04-16T09:42:00.903Z,40
2016-04-16T09:43:00.937Z,20
2016-04-16T09:44:01.018Z,16
2016-04-16T09:45:01.035Z,20
2016-04-16T09:46:01.085Z,24
2016-04-16T09:47:01.213Z,24
2016-04-16T09:48:01.341Z,20
2016-04-16T09:49:01.234Z,20
2016-04-16T09:50:01.331Z,20
2016-04-16T09:51:01.365Z,20
2016-04-16T09:52:01.384Z,24
2016-04-16T09:53:01.465Z,24
2016-04-16T09:54:01.529Z,28
2016-04-16T09:55:01.548Z,20
2016-04-16T09:56:01.628Z,20
2016-04-16T09:57:01.678Z,16
2016-04-16T09:58:01.743Z,20
2016-04-16T09:59:01.777Z,20
2016-04-16T10:00:01.811Z,16
2016-04-16T10:01:01.875Z,20
2016-04-16T10:02:01.942Z,20
2016-04-16T10:03:01.960Z,52
2016-04-16T10:04:02.025Z,20
2016-04-16T10:05:02.089Z,20
2016-04-16T10:06:02.108Z,12
2016-04-16T10:07:02.455Z,16
2016-04-16T10:08:02.223Z,4
2016-04-16T10:09:02.289Z,12
2016-04-16T10:10:02.353Z,12
2016-04-16T10:11:02.372Z,20
2016-04-16T10:12:02.281Z,20
2016-04-16T10:13:02.502Z,20
2016-04-16T10:14:02.521Z,16
2016-04-16T10:15:02.571Z,24
2016-04-16T10:16:02.683Z,20
2016-04-16T10:17:02.685Z,16
2016-04-16T10:18:02.719Z,16
2016-04-16T10:19:02.815Z,16
2016-04-16T10:20:02.849Z,12
2016-04-16T10:21:02.882Z,16
2016-04-16T10:22:02.792Z,12
2016-04-16T10:23:03.013Z,12
2016-04-16T10:24:03.048Z,12
2016-04-16T10:25:03.129Z,12
2016-04-16T10:26:03.162Z,12
2016-04-16T10:27:03.196Z,24
2016-04-16T10:28:03.245Z,28
2016-04-16T10:29:03.326Z,12
2016-04-16T10:30:03.344Z,36
2016-04-16T10:31:03.394Z,40
2016-04-16T10:32:03.475Z,40
2016-04-16T10:33:03.494Z,36
2016-04-16T10:34:03.589Z,24
2016-04-16T10:35:03.608Z,16
2016-04-16T10:36:03.658Z,12
2016-04-16T10:37:04.083Z,12
2016-04-16T10:38:03.742Z,12
2016-04-16T10:39:03.806Z,8
2016-04-16T10:40:03.903Z,8
2016-04-16T10:41:03.905Z,8
2016-04-16T10:42:03.955Z,8
2016-04-16T10:43:04.052Z,8
2016-04-16T10:44:04.086Z,8
2016-04-16T10:45:04.104Z,8
2016-04-16T10:46:04.200Z,12
2016-04-16T10:47:04.219Z,16
2016-04-16T10:48:04.299Z,16
2016-04-16T10:49:04.318Z,16
2016-04-16T10:50:04.351Z,16
2016-04-16T10:51:04.448Z,16
2016-04-16T10:52:04.497Z,12
2016-04-16T10:53:04.515Z,12
2016-04-16T10:54:04.612Z,12
2016-04-16T10:55:04.646Z,8
2016-04-16T10:56:04.664Z,8
2016-04-16T10:57:04.745Z,8
2016-04-16T10:58:04.654Z,8
2016-04-16T10:59:04.845Z,8
2016-04-16T11:00:04.910Z,8
2016-04-16T11:01:04.929Z,4
2016-04-16T11:02:05.025Z,8
2016-04-16T11:03:05.059Z,8
2016-04-16T11:04:05.077Z,8
2016-04-16T11:05:05.158Z,8
2016-04-16T11:06:05.207Z,8
2016-04-16T11:07:05.678Z,8
2016-04-16T11:08:05.291Z,8
2016-04-16T11:09:05.372Z,8
2016-04-16T11:10:05.390Z,8
2016-04-16T11:11:05.455Z,8
2016-04-16T11:12:05.520Z,8
2016-04-16T11:13:05.538Z,8
2016-04-16T11:14:05.588Z,8
2016-04-16T11:15:05.684Z,8
2016-04-16T11:16:05.718Z,8
2016-04-16T11:17:05.737Z,12
2016-04-16T11:18:05.833Z,8
2016-04-16T11:19:05.726Z,12
2016-04-16T11:20:05.901Z,8
2016-04-16T11:21:05.810Z,8
2016-04-16T11:22:06.094Z,8
2016-04-16T11:23:05.893Z,12
2016-04-16T11:24:06.115Z,12
2016-04-16T11:25:06.165Z,12
2016-04-16T11:26:06.229Z,16
2016-04-16T11:27:06.279Z,20
2016-04-16T11:28:06.313Z,24
2016-04-16T11:29:06.378Z,28
2016-04-16T11:30:06.459Z,32
2016-04-16T11:31:06.461Z,32
2016-04-16T11:32:06.528Z,24
2016-04-16T11:33:06.592Z,20
2016-04-16T11:34:06.595Z,16
2016-04-16T11:35:06.676Z,16
2016-04-16T11:36:06.756Z,20
2016-04-16T11:37:06.806Z,20
2016-04-16T11:38:06.856Z,16
2016-04-16T11:39:06.858Z,16
2016-04-16T11:40:06.924Z,16
2016-04-16T11:41:07.005Z,12
2016-04-16T11:42:07.022Z,12
2016-04-16T11:43:07.088Z,12
2016-04-16T11:44:07.169Z,12
2016-04-16T11:45:07.171Z,12
2016-04-16T11:46:07.221Z,16
2016-04-16T11:47:07.318Z,8
2016-04-16T11:48:07.351Z,8
2016-04-16T11:49:07.369Z,12
2016-04-16T11:50:07.466Z,8
2016-04-16T11:51:07.528Z,12
2016-04-16T11:52:07.856Z,20
2016-04-16T11:53:07.731Z,24
2016-04-16T11:54:07.808Z,20
2016-04-16T11:55:07.934Z,24
2016-04-16T11:56:07.985Z,24
2016-04-16T11:57:08.034Z,24
2016-04-16T11:58:08.146Z,28
2016-04-16T11:59:08.196Z,24
2016-04-16T12:00:08.230Z,20
2016-04-16T12:01:08.331Z,24
2016-04-16T12:02:08.388Z,24
2016-04-16T12:03:08.412Z,24
2016-04-16T12:04:08.482Z,20
2016-04-16T12:05:08.366Z,24
2016-04-16T12:06:08.605Z,20
2016-04-16T12:07:08.657Z,24
2016-04-16T12:08:08.678Z,24
2016-04-16T12:09:08.604Z,24
2016-04-16T12:10:08.813Z,24
2016-04-16T12:11:08.832Z,20
2016-04-16T12:12:08.914Z,24
2016-04-16T12:13:08.980Z,20
2016-04-16T12:14:08.983Z,24
2016-04-16T12:15:09.080Z,24
2016-04-16T12:16:09.115Z,20
2016-04-16T12:17:09.164Z,24
2016-04-16T12:18:09.247Z,20
2016-04-16T12:19:09.249Z,20
2016-04-16T12:20:09.315Z,20
2016-04-16T12:21:09.395Z,20
2016-04-16T12:22:09.398Z,16
2016-04-16T12:23:09.463Z,16
2016-04-16T12:24:09.544Z,12
2016-04-16T12:25:09.562Z,12
2016-04-16T12:26:09.612Z,12
2016-04-16T12:27:09.692Z,12
2016-04-16T12:28:09.727Z,12
2016-04-16T12:29:09.792Z,8
2016-04-16T12:30:09.810Z,12
2016-04-16T12:31:09.875Z,8
2016-04-16T12:32:09.956Z,8
2016-04-16T12:33:09.975Z,8
2016-04-16T12:34:10.024Z,8
2016-04-16T12:35:10.120Z,8
2016-04-16T12:36:10.139Z,8
2016-04-16T12:37:10.173Z,8
2016-04-16T12:38:10.269Z,8
2016-04-16T12:39:10.304Z,8
2016-04-16T12:40:10.337Z,8
2016-04-16T12:41:10.402Z,4
2016-04-16T12:42:10.296Z,4
2016-04-16T12:43:10.501Z,4
2016-04-16T12:44:10.551Z,4
2016-04-16T12:45:10.570Z,0
2016-04-16T12:46:10.665Z,0
2016-04-16T12:47:10.715Z,4
2016-04-16T12:48:10.733Z,4
2016-04-16T12:49:10.815Z,4
2016-04-16T12:50:10.879Z,12
2016-04-16T12:51:10.882Z,12
2016-04-16T12:52:10.948Z,16
2016-04-16T12:53:11.012Z,20
2016-04-16T12:54:10.890Z,24
2016-04-16T12:55:11.096Z,20
2016-04-16T12:56:11.177Z,24
2016-04-16T12:57:11.195Z,24
2016-04-16T12:58:11.229Z,20
2016-04-16T12:59:11.325Z,20
2016-04-16T13:00:11.360Z,20
2016-04-16T13:01:11.394Z,20
2016-04-16T13:02:11.474Z,20
2016-04-16T13:03:11.524Z,16
2016-04-16T13:04:11.541Z,16
2016-04-16T13:05:11.623Z,16
2016-04-16T13:06:11.688Z,12
2016-04-16T13:07:11.707Z,12
2016-04-16T13:08:11.756Z,12
2016-04-16T13:09:11.805Z,8
2016-04-16T13:10:11.887Z,8
2016-04-16T13:11:11.935Z,12
2016-04-16T13:12:11.970Z,12
2016-04-16T13:13:12.035Z,8
2016-04-16T13:14:12.084Z,8
2016-04-16T13:15:12.104Z,12
2016-04-16T13:16:12.168Z,8
2016-04-16T13:17:12.248Z,8
2016-04-16T13:18:12.251Z,8
2016-04-16T13:19:12.317Z,8
2016-04-16T13:20:12.382Z,4
2016-04-16T13:21:12.448Z,8
2016-04-16T13:22:13.028Z,4
2016-04-16T13:23:12.515Z,8
2016-04-16T13:24:12.581Z,8
2016-04-16T13:25:12.661Z,8
2016-04-16T13:26:12.664Z,8
2016-04-16T13:27:12.776Z,8
2016-04-16T13:28:12.810Z,8
2016-04-16T13:29:12.828Z,8
2016-04-16T13:30:12.877Z,8
2016-04-16T13:31:12.943Z,8
2016-04-16T13:32:12.992Z,8
2016-04-16T13:33:13.073Z,8
2016-04-16T13:34:13.107Z,8
2016-04-16T13:35:12.391Z,8
2016-04-16T13:36:13.207Z,12
2016-04-16T13:37:13.225Z,12
2016-04-16T13:38:13.290Z,12
2016-04-16T13:39:13.371Z,12
2016-04-16T13:40:13.404Z,8
2016-04-16T13:41:13.423Z,12
2016-04-16T13:42:12.769Z,12
2016-04-16T13:43:13.568Z,12
2016-04-16T13:44:13.572Z,12
2016-04-16T13:45:13.668Z,12
2016-04-16T13:46:13.671Z,16
2016-04-16T13:47:13.768Z,16
2016-04-16T13:48:13.817Z,20
2016-04-16T13:49:13.835Z,16
2016-04-16T13:50:13.931Z,16
2016-04-16T13:51:13.965Z,16
2016-04-16T13:52:13.983Z,12
2016-04-16T13:53:14.064Z,12
2016-04-16T13:54:14.130Z,12
2016-04-16T13:55:14.147Z,12
2016-04-16T13:56:14.213Z,12
2016-04-16T13:57:14.278Z,12
2016-04-16T13:58:13.562Z,12
2016-04-16T13:59:14.409Z,12
2016-04-16T14:00:14.396Z,16
2016-04-16T14:01:14.477Z,12
2016-04-16T14:02:14.542Z,12
2016-04-16T14:03:14.544Z,16
2016-04-16T14:04:14.610Z,12
2016-04-16T14:05:14.690Z,12
2016-04-16T14:06:14.708Z,12
2016-04-16T14:07:14.758Z,12
2016-04-16T14:08:14.839Z,12
2016-04-16T14:09:14.873Z,8
2016-04-16T14:10:14.923Z,8
2016-04-16T14:11:14.988Z,8
2016-04-16T14:12:15.037Z,8
2016-04-16T14:13:15.102Z,12
2016-04-16T14:14:15.104Z,8
2016-04-16T14:15:15.170Z,12
2016-04-16T14:16:15.267Z,12
2016-04-16T14:17:15.270Z,8
2016-04-16T14:18:15.319Z,8
2016-04-16T14:19:15.415Z,8
2016-04-16T14:20:15.450Z,8
2016-04-16T14:21:15.467Z,8
2016-04-16T14:22:15.564Z,8
2016-04-16T14:23:15.598Z,8
2016-04-16T14:24:15.648Z,8
2016-04-16T14:25:15.697Z,8
2016-04-16T14:26:15.716Z,8
2016-04-16T14:27:15.812Z,8
2016-04-16T14:28:15.847Z,8
2016-04-16T14:29:15.881Z,8
2016-04-16T14:30:15.961Z,8
2016-04-16T14:31:16.011Z,12
2016-04-16T14:32:16.028Z,8
2016-04-16T14:33:16.094Z,8
2016-04-16T14:34:16.191Z,8
2016-04-16T14:35:16.193Z,12
2016-04-16T14:36:16.243Z,12
2016-04-16T14:37:16.324Z,12
2016-04-16T14:38:16.327Z,16